sensor_id;sensor_type;location;lat;lon;timestamp;P1;durP1;ratioP1;P2;durP2;ratioP2
20138;SDS011;10230;51.502;10.800;2023-05-07T00:01:38;10.37;;;6.93;;
20138;SDS011;10230;51.502;10.800;2023-05-07T00:04:04;9.70;;;6.97;;
20138;SDS011;10230;51.502;10.800;2023-05-07T00:06:30;10.10;;;7.23;;
20138;SDS011;10230;51.502;10.800;2023-05-07T00:08:57;10.57;;;7.17;;
20138;SDS011;10230;51.502;10.800;2023-05-07T00:11:23;12.23;;;7.43;;
20138;SDS011;10230;51.502;10.800;2023-05-07T00:13:48;11.53;;;7.93;;
20138;SDS011;10230;51.502;10.800;2023-05-07T00:16:14;10.77;;;6.93;;
20138;SDS011;10230;51.502;10.800;2023-05-07T00:18:40;10.97;;;7.47;;
20138;SDS011;10230;51.502;10.800;2023-05-07T00:21:05;12.23;;;7.50;;
20138;SDS011;10230;51.502;10.800;2023-05-07T00:23:31;11.03;;;6.87;;
20138;SDS011;10230;51.502;10.800;2023-05-07T00:25:56;10.23;;;6.70;;
20138;SDS011;10230;51.502;10.800;2023-05-07T00:28:22;10.70;;;6.63;;
20138;SDS011;10230;51.502;10.800;2023-05-07T00:30:48;11.73;;;6.80;;
20138;SDS011;10230;51.502;10.800;2023-05-07T00:33:13;11.73;;;6.63;;
20138;SDS011;10230;51.502;10.800;2023-05-07T00:35:39;10.27;;;6.50;;
20138;SDS011;10230;51.502;10.800;2023-05-07T00:38:05;9.97;;;6.40;;
20138;SDS011;10230;51.502;10.800;2023-05-07T00:40:30;10.07;;;6.83;;
20138;SDS011;10230;51.502;10.800;2023-05-07T00:42:56;10.73;;;7.00;;
20138;SDS011;10230;51.502;10.800;2023-05-07T00:45:23;10.37;;;5.97;;
20138;SDS011;10230;51.502;10.800;2023-05-07T00:47:56;10.23;;;6.23;;
20138;SDS011;10230;51.502;10.800;2023-05-07T00:50:24;11.80;;;6.43;;
20138;SDS011;10230;51.502;10.800;2023-05-07T00:52:50;10.53;;;6.80;;
20138;SDS011;10230;51.502;10.800;2023-05-07T00:55:16;13.30;;;6.40;;
20138;SDS011;10230;51.502;10.800;2023-05-07T00:57:42;12.03;;;6.77;;
20138;SDS011;10230;51.502;10.800;2023-05-07T01:00:09;14.57;;;6.67;;
20138;SDS011;10230;51.502;10.800;2023-05-07T01:02:37;10.77;;;6.63;;
20138;SDS011;10230;51.502;10.800;2023-05-07T01:05:04;9.17;;;6.27;;
20138;SDS011;10230;51.502;10.800;2023-05-07T01:07:32;11.20;;;6.90;;
20138;SDS011;10230;51.502;10.800;2023-05-07T01:09:59;8.00;;;5.30;;
20138;SDS011;10230;51.502;10.800;2023-05-07T01:12:26;13.30;;;6.80;;
20138;SDS011;10230;51.502;10.800;2023-05-07T01:14:53;10.03;;;5.67;;
20138;SDS011;10230;51.502;10.800;2023-05-07T01:17:19;9.40;;;6.07;;
20138;SDS011;10230;51.502;10.800;2023-05-07T01:19:45;9.23;;;6.07;;
20138;SDS011;10230;51.502;10.800;2023-05-07T01:22:12;11.70;;;7.30;;
20138;SDS011;10230;51.502;10.800;2023-05-07T01:24:41;8.40;;;5.43;;
20138;SDS011;10230;51.502;10.800;2023-05-07T01:27:08;8.63;;;5.53;;
20138;SDS011;10230;51.502;10.800;2023-05-07T01:29:33;10.43;;;7.07;;
20138;SDS011;10230;51.502;10.800;2023-05-07T01:32:00;9.13;;;5.50;;
20138;SDS011;10230;51.502;10.800;2023-05-07T01:34:28;9.67;;;5.57;;
20138;SDS011;10230;51.502;10.800;2023-05-07T01:36:57;8.83;;;5.30;;
20138;SDS011;10230;51.502;10.800;2023-05-07T01:39:24;10.20;;;5.87;;
20138;SDS011;10230;51.502;10.800;2023-05-07T01:41:53;8.03;;;5.27;;
20138;SDS011;10230;51.502;10.800;2023-05-07T01:44:20;10.50;;;5.17;;
20138;SDS011;10230;51.502;10.800;2023-05-07T01:46:47;9.80;;;5.50;;
20138;SDS011;10230;51.502;10.800;2023-05-07T01:49:13;9.27;;;5.43;;
20138;SDS011;10230;51.502;10.800;2023-05-07T01:51:39;9.00;;;5.60;;
20138;SDS011;10230;51.502;10.800;2023-05-07T01:54:05;9.43;;;5.03;;
20138;SDS011;10230;51.502;10.800;2023-05-07T01:56:31;7.63;;;4.87;;
20138;SDS011;10230;51.502;10.800;2023-05-07T01:58:57;8.93;;;5.23;;
20138;SDS011;10230;51.502;10.800;2023-05-07T02:01:22;7.53;;;5.00;;
20138;SDS011;10230;51.502;10.800;2023-05-07T02:03:48;7.80;;;4.40;;
20138;SDS011;10230;51.502;10.800;2023-05-07T02:06:14;10.07;;;5.47;;
20138;SDS011;10230;51.502;10.800;2023-05-07T02:08:40;8.70;;;4.97;;
20138;SDS011;10230;51.502;10.800;2023-05-07T02:11:05;7.40;;;4.70;;
20138;SDS011;10230;51.502;10.800;2023-05-07T02:13:32;7.27;;;4.23;;
20138;SDS011;10230;51.502;10.800;2023-05-07T02:15:59;8.30;;;4.50;;
20138;SDS011;10230;51.502;10.800;2023-05-07T02:18:25;7.30;;;4.27;;
20138;SDS011;10230;51.502;10.800;2023-05-07T02:20:51;7.40;;;4.93;;
20138;SDS011;10230;51.502;10.800;2023-05-07T02:23:17;7.77;;;5.20;;
20138;SDS011;10230;51.502;10.800;2023-05-07T02:25:43;7.43;;;4.43;;
20138;SDS011;10230;51.502;10.800;2023-05-07T02:28:08;7.40;;;4.17;;
20138;SDS011;10230;51.502;10.800;2023-05-07T02:30:35;6.13;;;4.10;;
20138;SDS011;10230;51.502;10.800;2023-05-07T02:33:01;8.87;;;4.50;;
20138;SDS011;10230;51.502;10.800;2023-05-07T02:35:27;6.67;;;4.43;;
20138;SDS011;10230;51.502;10.800;2023-05-07T02:37:53;6.93;;;4.20;;
20138;SDS011;10230;51.502;10.800;2023-05-07T02:40:18;6.83;;;4.50;;
20138;SDS011;10230;51.502;10.800;2023-05-07T02:42:44;7.80;;;4.60;;
20138;SDS011;10230;51.502;10.800;2023-05-07T02:45:10;8.33;;;5.30;;
20138;SDS011;10230;51.502;10.800;2023-05-07T02:47:36;8.33;;;4.63;;
20138;SDS011;10230;51.502;10.800;2023-05-07T02:50:01;9.47;;;5.20;;
20138;SDS011;10230;51.502;10.800;2023-05-07T02:52:27;7.53;;;4.90;;
20138;SDS011;10230;51.502;10.800;2023-05-07T02:54:53;8.53;;;5.07;;
20138;SDS011;10230;51.502;10.800;2023-05-07T02:57:19;7.43;;;4.60;;
20138;SDS011;10230;51.502;10.800;2023-05-07T02:59:44;8.57;;;5.27;;
20138;SDS011;10230;51.502;10.800;2023-05-07T03:02:10;8.40;;;5.57;;
20138;SDS011;10230;51.502;10.800;2023-05-07T03:04:35;8.63;;;5.77;;
20138;SDS011;10230;51.502;10.800;2023-05-07T03:07:01;9.10;;;5.73;;
20138;SDS011;10230;51.502;10.800;2023-05-07T03:09:27;9.77;;;5.63;;
20138;SDS011;10230;51.502;10.800;2023-05-07T03:11:52;11.07;;;6.50;;
20138;SDS011;10230;51.502;10.800;2023-05-07T03:14:18;9.77;;;5.80;;
20138;SDS011;10230;51.502;10.800;2023-05-07T03:16:43;9.63;;;5.60;;
20138;SDS011;10230;51.502;10.800;2023-05-07T03:19:09;8.83;;;5.57;;
20138;SDS011;10230;51.502;10.800;2023-05-07T03:21:35;8.07;;;4.87;;
20138;SDS011;10230;51.502;10.800;2023-05-07T03:24:00;9.17;;;4.70;;
20138;SDS011;10230;51.502;10.800;2023-05-07T03:26:26;10.30;;;6.07;;
20138;SDS011;10230;51.502;10.800;2023-05-07T03:28:52;10.27;;;5.80;;
20138;SDS011;10230;51.502;10.800;2023-05-07T03:31:17;10.10;;;6.37;;
20138;SDS011;10230;51.502;10.800;2023-05-07T03:33:53;10.17;;;5.80;;
20138;SDS011;10230;51.502;10.800;2023-05-07T03:36:20;9.27;;;4.90;;
20138;SDS011;10230;51.502;10.800;2023-05-07T03:38:46;8.43;;;4.87;;
20138;SDS011;10230;51.502;10.800;2023-05-07T03:41:12;8.37;;;5.67;;
20138;SDS011;10230;51.502;10.800;2023-05-07T03:43:38;7.97;;;5.03;;
20138;SDS011;10230;51.502;10.800;2023-05-07T03:46:04;7.53;;;4.43;;
20138;SDS011;10230;51.502;10.800;2023-05-07T03:48:30;7.40;;;4.70;;
20138;SDS011;10230;51.502;10.800;2023-05-07T03:50:56;7.23;;;4.20;;
20138;SDS011;10230;51.502;10.800;2023-05-07T03:53:22;7.03;;;4.27;;
20138;SDS011;10230;51.502;10.800;2023-05-07T03:55:48;6.77;;;4.20;;
20138;SDS011;10230;51.502;10.800;2023-05-07T03:58:14;7.63;;;4.67;;
20138;SDS011;10230;51.502;10.800;2023-05-07T04:00:40;6.67;;;4.07;;
20138;SDS011;10230;51.502;10.800;2023-05-07T04:03:06;9.60;;;4.87;;
20138;SDS011;10230;51.502;10.800;2023-05-07T04:05:32;9.13;;;4.80;;
20138;SDS011;10230;51.502;10.800;2023-05-07T04:07:58;7.60;;;4.57;;
20138;SDS011;10230;51.502;10.800;2023-05-07T04:10:24;7.70;;;4.20;;
20138;SDS011;10230;51.502;10.800;2023-05-07T04:12:50;5.23;;;3.87;;
20138;SDS011;10230;51.502;10.800;2023-05-07T04:15:16;8.43;;;4.00;;
20138;SDS011;10230;51.502;10.800;2023-05-07T04:17:41;5.27;;;3.70;;
20138;SDS011;10230;51.502;10.800;2023-05-07T04:20:13;6.53;;;3.60;;
20138;SDS011;10230;51.502;10.800;2023-05-07T04:22:40;5.37;;;3.43;;
20138;SDS011;10230;51.502;10.800;2023-05-07T04:25:07;4.00;;;3.03;;
20138;SDS011;10230;51.502;10.800;2023-05-07T04:27:34;5.67;;;3.13;;
20138;SDS011;10230;51.502;10.800;2023-05-07T04:29:59;4.90;;;2.67;;
20138;SDS011;10230;51.502;10.800;2023-05-07T04:32:25;3.63;;;2.27;;
20138;SDS011;10230;51.502;10.800;2023-05-07T04:34:51;4.33;;;2.37;;
20138;SDS011;10230;51.502;10.800;2023-05-07T04:37:17;3.97;;;2.07;;
20138;SDS011;10230;51.502;10.800;2023-05-07T04:39:43;4.03;;;2.47;;
20138;SDS011;10230;51.502;10.800;2023-05-07T04:42:08;3.73;;;2.57;;
20138;SDS011;10230;51.502;10.800;2023-05-07T04:44:35;4.00;;;1.90;;
20138;SDS011;10230;51.502;10.800;2023-05-07T04:47:02;3.13;;;2.27;;
20138;SDS011;10230;51.502;10.800;2023-05-07T04:49:27;3.30;;;1.90;;
20138;SDS011;10230;51.502;10.800;2023-05-07T04:51:53;4.10;;;2.50;;
20138;SDS011;10230;51.502;10.800;2023-05-07T04:54:19;3.17;;;2.00;;
20138;SDS011;10230;51.502;10.800;2023-05-07T04:56:44;3.70;;;2.37;;
20138;SDS011;10230;51.502;10.800;2023-05-07T04:59:10;3.70;;;2.33;;
20138;SDS011;10230;51.502;10.800;2023-05-07T05:01:36;4.07;;;2.43;;
20138;SDS011;10230;51.502;10.800;2023-05-07T05:04:01;5.23;;;2.63;;
20138;SDS011;10230;51.502;10.800;2023-05-07T05:06:27;6.77;;;2.90;;
20138;SDS011;10230;51.502;10.800;2023-05-07T05:08:53;4.33;;;2.83;;
20138;SDS011;10230;51.502;10.800;2023-05-07T05:11:19;3.67;;;2.20;;
20138;SDS011;10230;51.502;10.800;2023-05-07T05:13:45;2.83;;;2.20;;
20138;SDS011;10230;51.502;10.800;2023-05-07T05:16:13;5.00;;;2.67;;
20138;SDS011;10230;51.502;10.800;2023-05-07T05:18:39;3.40;;;2.57;;
20138;SDS011;10230;51.502;10.800;2023-05-07T05:21:05;3.23;;;2.30;;
20138;SDS011;10230;51.502;10.800;2023-05-07T05:23:31;2.53;;;1.90;;
20138;SDS011;10230;51.502;10.800;2023-05-07T05:25:57;3.63;;;2.40;;
20138;SDS011;10230;51.502;10.800;2023-05-07T05:28:24;3.83;;;2.77;;
20138;SDS011;10230;51.502;10.800;2023-05-07T05:30:50;4.90;;;2.67;;
20138;SDS011;10230;51.502;10.800;2023-05-07T05:33:15;4.80;;;3.03;;
20138;SDS011;10230;51.502;10.800;2023-05-07T05:35:41;4.67;;;2.97;;
20138;SDS011;10230;51.502;10.800;2023-05-07T05:38:07;5.50;;;3.23;;
20138;SDS011;10230;51.502;10.800;2023-05-07T05:40:33;5.37;;;2.97;;
20138;SDS011;10230;51.502;10.800;2023-05-07T05:42:59;6.27;;;3.70;;
20138;SDS011;10230;51.502;10.800;2023-05-07T05:45:25;6.60;;;3.40;;
20138;SDS011;10230;51.502;10.800;2023-05-07T05:47:51;5.70;;;3.20;;
20138;SDS011;10230;51.502;10.800;2023-05-07T05:50:16;3.80;;;2.50;;
20138;SDS011;10230;51.502;10.800;2023-05-07T05:52:42;4.50;;;2.93;;
20138;SDS011;10230;51.502;10.800;2023-05-07T05:55:08;3.00;;;2.27;;
20138;SDS011;10230;51.502;10.800;2023-05-07T05:57:34;4.10;;;2.73;;
20138;SDS011;10230;51.502;10.800;2023-05-07T06:00:00;3.50;;;2.57;;
20138;SDS011;10230;51.502;10.800;2023-05-07T06:02:27;3.37;;;2.10;;
20138;SDS011;10230;51.502;10.800;2023-05-07T06:04:53;2.70;;;2.00;;
20138;SDS011;10230;51.502;10.800;2023-05-07T06:07:18;4.03;;;2.63;;
20138;SDS011;10230;51.502;10.800;2023-05-07T06:09:44;5.10;;;3.13;;
20138;SDS011;10230;51.502;10.800;2023-05-07T06:12:10;4.70;;;3.00;;
20138;SDS011;10230;51.502;10.800;2023-05-07T06:14:36;3.40;;;2.10;;
20138;SDS011;10230;51.502;10.800;2023-05-07T06:17:06;4.43;;;2.77;;
20138;SDS011;10230;51.502;10.800;2023-05-07T06:19:32;5.03;;;3.60;;
20138;SDS011;10230;51.502;10.800;2023-05-07T06:21:58;4.40;;;2.97;;
20138;SDS011;10230;51.502;10.800;2023-05-07T06:24:26;4.93;;;3.00;;
20138;SDS011;10230;51.502;10.800;2023-05-07T06:26:52;5.80;;;3.67;;
20138;SDS011;10230;51.502;10.800;2023-05-07T06:29:18;5.20;;;3.60;;
20138;SDS011;10230;51.502;10.800;2023-05-07T06:31:43;8.50;;;4.33;;
20138;SDS011;10230;51.502;10.800;2023-05-07T06:34:09;7.33;;;4.67;;
20138;SDS011;10230;51.502;10.800;2023-05-07T06:36:35;4.93;;;3.40;;
20138;SDS011;10230;51.502;10.800;2023-05-07T06:39:01;4.93;;;3.23;;
20138;SDS011;10230;51.502;10.800;2023-05-07T06:41:26;7.07;;;4.33;;
20138;SDS011;10230;51.502;10.800;2023-05-07T06:43:52;5.37;;;3.90;;
20138;SDS011;10230;51.502;10.800;2023-05-07T06:46:18;6.73;;;4.80;;
20138;SDS011;10230;51.502;10.800;2023-05-07T06:48:43;5.90;;;4.10;;
20138;SDS011;10230;51.502;10.800;2023-05-07T06:51:09;6.17;;;3.97;;
20138;SDS011;10230;51.502;10.800;2023-05-07T06:53:35;6.40;;;3.80;;
20138;SDS011;10230;51.502;10.800;2023-05-07T06:56:00;7.13;;;4.03;;
20138;SDS011;10230;51.502;10.800;2023-05-07T06:58:26;5.97;;;4.30;;
20138;SDS011;10230;51.502;10.800;2023-05-07T07:00:52;4.97;;;3.53;;
20138;SDS011;10230;51.502;10.800;2023-05-07T07:03:17;7.03;;;4.00;;
20138;SDS011;10230;51.502;10.800;2023-05-07T07:05:43;5.23;;;3.57;;
20138;SDS011;10230;51.502;10.800;2023-05-07T07:08:09;5.33;;;3.47;;
20138;SDS011;10230;51.502;10.800;2023-05-07T07:10:35;6.53;;;5.00;;
20138;SDS011;10230;51.502;10.800;2023-05-07T07:13:00;9.67;;;4.93;;
20138;SDS011;10230;51.502;10.800;2023-05-07T07:15:26;7.17;;;4.67;;
20138;SDS011;10230;51.502;10.800;2023-05-07T07:17:52;7.00;;;5.03;;
20138;SDS011;10230;51.502;10.800;2023-05-07T07:20:18;8.40;;;4.63;;
20138;SDS011;10230;51.502;10.800;2023-05-07T07:22:43;7.57;;;4.63;;
20138;SDS011;10230;51.502;10.800;2023-05-07T07:25:09;9.00;;;5.80;;
20138;SDS011;10230;51.502;10.800;2023-05-07T07:27:36;7.43;;;5.20;;
20138;SDS011;10230;51.502;10.800;2023-05-07T07:30:02;8.87;;;6.03;;
20138;SDS011;10230;51.502;10.800;2023-05-07T07:32:28;8.57;;;5.00;;
20138;SDS011;10230;51.502;10.800;2023-05-07T07:34:54;8.13;;;4.93;;
20138;SDS011;10230;51.502;10.800;2023-05-07T07:37:19;8.17;;;5.70;;
20138;SDS011;10230;51.502;10.800;2023-05-07T07:39:45;8.07;;;5.27;;
20138;SDS011;10230;51.502;10.800;2023-05-07T07:42:11;7.97;;;5.53;;
20138;SDS011;10230;51.502;10.800;2023-05-07T07:44:36;9.10;;;5.13;;
20138;SDS011;10230;51.502;10.800;2023-05-07T07:47:02;8.37;;;6.30;;
20138;SDS011;10230;51.502;10.800;2023-05-07T07:49:27;9.40;;;5.57;;
20138;SDS011;10230;51.502;10.800;2023-05-07T07:51:53;8.33;;;5.40;;
20138;SDS011;10230;51.502;10.800;2023-05-07T07:54:19;8.97;;;5.83;;
20138;SDS011;10230;51.502;10.800;2023-05-07T07:56:44;8.33;;;5.33;;
20138;SDS011;10230;51.502;10.800;2023-05-07T07:59:10;8.90;;;5.90;;
20138;SDS011;10230;51.502;10.800;2023-05-07T08:01:36;9.43;;;6.03;;
20138;SDS011;10230;51.502;10.800;2023-05-07T08:04:01;10.37;;;6.10;;
20138;SDS011;10230;51.502;10.800;2023-05-07T08:06:28;11.47;;;5.87;;
20138;SDS011;10230;51.502;10.800;2023-05-07T08:08:54;7.30;;;5.03;;
20138;SDS011;10230;51.502;10.800;2023-05-07T08:11:21;9.43;;;5.73;;
20138;SDS011;10230;51.502;10.800;2023-05-07T08:13:47;10.03;;;5.80;;
20138;SDS011;10230;51.502;10.800;2023-05-07T08:16:13;6.93;;;5.53;;
20138;SDS011;10230;51.502;10.800;2023-05-07T08:18:40;8.03;;;5.60;;
20138;SDS011;10230;51.502;10.800;2023-05-07T08:21:06;8.63;;;6.10;;
20138;SDS011;10230;51.502;10.800;2023-05-07T08:23:32;9.17;;;6.50;;
20138;SDS011;10230;51.502;10.800;2023-05-07T08:25:59;9.73;;;7.43;;
20138;SDS011;10230;51.502;10.800;2023-05-07T08:28:25;10.50;;;6.87;;
20138;SDS011;10230;51.502;10.800;2023-05-07T08:30:51;9.90;;;7.00;;
20138;SDS011;10230;51.502;10.800;2023-05-07T08:33:21;8.60;;;6.57;;
20138;SDS011;10230;51.502;10.800;2023-05-07T08:35:47;9.63;;;6.53;;
20138;SDS011;10230;51.502;10.800;2023-05-07T08:38:13;10.57;;;7.53;;
20138;SDS011;10230;51.502;10.800;2023-05-07T08:40:39;10.07;;;7.47;;
20138;SDS011;10230;51.502;10.800;2023-05-07T08:43:06;10.23;;;7.80;;
20138;SDS011;10230;51.502;10.800;2023-05-07T08:45:35;13.00;;;7.53;;
20138;SDS011;10230;51.502;10.800;2023-05-07T08:48:05;9.93;;;7.33;;
20138;SDS011;10230;51.502;10.800;2023-05-07T08:50:32;9.73;;;7.25;;
20138;SDS011;10230;51.502;10.800;2023-05-07T08:53:02;9.17;;;6.90;;
20138;SDS011;10230;51.502;10.800;2023-05-07T08:55:28;9.33;;;7.10;;
20138;SDS011;10230;51.502;10.800;2023-05-07T08:57:54;9.03;;;7.10;;
20138;SDS011;10230;51.502;10.800;2023-05-07T09:00:19;10.93;;;6.82;;
20138;SDS011;10230;51.502;10.800;2023-05-07T09:02:45;9.13;;;6.40;;
20138;SDS011;10230;51.502;10.800;2023-05-07T09:05:11;8.68;;;6.28;;
20138;SDS011;10230;51.502;10.800;2023-05-07T09:07:37;7.43;;;6.28;;
20138;SDS011;10230;51.502;10.800;2023-05-07T09:10:03;7.85;;;6.05;;
20138;SDS011;10230;51.502;10.800;2023-05-07T09:12:29;8.55;;;6.00;;
20138;SDS011;10230;51.502;10.800;2023-05-07T09:14:55;7.68;;;5.97;;
20138;SDS011;10230;51.502;10.800;2023-05-07T09:17:21;6.85;;;5.40;;
20138;SDS011;10230;51.502;10.800;2023-05-07T09:19:47;8.45;;;6.22;;
20138;SDS011;10230;51.502;10.800;2023-05-07T09:22:12;8.88;;;6.45;;
20138;SDS011;10230;51.502;10.800;2023-05-07T09:24:38;7.88;;;6.07;;
20138;SDS011;10230;51.502;10.800;2023-05-07T09:27:04;8.63;;;5.93;;
20138;SDS011;10230;51.502;10.800;2023-05-07T09:29:30;6.83;;;5.40;;
20138;SDS011;10230;51.502;10.800;2023-05-07T09:32:03;8.13;;;6.33;;
20138;SDS011;10230;51.502;10.800;2023-05-07T09:34:30;7.57;;;6.22;;
20138;SDS011;10230;51.502;10.800;2023-05-07T09:36:56;8.93;;;6.93;;
20138;SDS011;10230;51.502;10.800;2023-05-07T09:39:25;8.02;;;7.22;;
20138;SDS011;10230;51.502;10.800;2023-05-07T09:41:51;8.68;;;6.68;;
20138;SDS011;10230;51.502;10.800;2023-05-07T09:44:19;10.95;;;6.95;;
20138;SDS011;10230;51.502;10.800;2023-05-07T09:46:46;9.95;;;6.80;;
20138;SDS011;10230;51.502;10.800;2023-05-07T09:49:20;7.70;;;6.22;;
20138;SDS011;10230;51.502;10.800;2023-05-07T09:51:49;10.70;;;7.23;;
20138;SDS011;10230;51.502;10.800;2023-05-07T09:54:16;9.80;;;7.18;;
20138;SDS011;10230;51.502;10.800;2023-05-07T09:56:43;9.48;;;7.28;;
20138;SDS011;10230;51.502;10.800;2023-05-07T09:59:10;7.57;;;6.45;;
20138;SDS011;10230;51.502;10.800;2023-05-07T10:01:39;9.57;;;7.38;;
20138;SDS011;10230;51.502;10.800;2023-05-07T10:04:09;8.13;;;6.53;;
20138;SDS011;10230;51.502;10.800;2023-05-07T10:06:36;9.27;;;7.30;;
20138;SDS011;10230;51.502;10.800;2023-05-07T10:09:03;9.50;;;7.83;;
20138;SDS011;10230;51.502;10.800;2023-05-07T10:11:31;7.87;;;6.97;;
20138;SDS011;10230;51.502;10.800;2023-05-07T10:13:58;9.23;;;6.53;;
20138;SDS011;10230;51.502;10.800;2023-05-07T10:16:27;10.07;;;7.37;;
20138;SDS011;10230;51.502;10.800;2023-05-07T10:18:56;8.17;;;6.70;;
20138;SDS011;10230;51.502;10.800;2023-05-07T10:21:23;7.88;;;6.25;;
20138;SDS011;10230;51.502;10.800;2023-05-07T10:23:51;9.07;;;7.17;;
20138;SDS011;10230;51.502;10.800;2023-05-07T10:26:35;10.80;;;7.60;;
20138;SDS011;10230;51.502;10.800;2023-05-07T10:29:06;10.00;;;7.13;;
20138;SDS011;10230;51.502;10.800;2023-05-07T10:34:24;8.07;;;6.13;;
20138;SDS011;10230;51.502;10.800;2023-05-07T10:37:02;8.00;;;5.70;;
20138;SDS011;10230;51.502;10.800;2023-05-07T10:39:29;9.00;;;6.00;;
20138;SDS011;10230;51.502;10.800;2023-05-07T10:41:55;7.80;;;6.10;;
20138;SDS011;10230;51.502;10.800;2023-05-07T10:44:25;7.67;;;6.23;;
20138;SDS011;10230;51.502;10.800;2023-05-07T10:49:29;7.57;;;5.77;;
20138;SDS011;10230;51.502;10.800;2023-05-07T10:54:41;7.30;;;5.90;;
20138;SDS011;10230;51.502;10.800;2023-05-07T10:59:55;7.20;;;5.60;;
20138;SDS011;10230;51.502;10.800;2023-05-07T11:02:21;8.15;;;6.03;;
20138;SDS011;10230;51.502;10.800;2023-05-07T11:05:18;9.10;;;6.60;;
20138;SDS011;10230;51.502;10.800;2023-05-07T11:07:54;6.15;;;5.50;;
20138;SDS011;10230;51.502;10.800;2023-05-07T11:16:21;7.78;;;6.18;;
20138;SDS011;10230;51.502;10.800;2023-05-07T11:18:53;8.75;;;5.75;;
20138;SDS011;10230;51.502;10.800;2023-05-07T11:24:05;10.10;;;6.90;;
20138;SDS011;10230;51.502;10.800;2023-05-07T11:27:08;8.13;;;6.50;;
20138;SDS011;10230;51.502;10.800;2023-05-07T11:29:27;7.63;;;6.35;;
20138;SDS011;10230;51.502;10.800;2023-05-07T11:31:54;6.88;;;5.85;;
20138;SDS011;10230;51.502;10.800;2023-05-07T11:34:20;7.10;;;5.97;;
20138;SDS011;10230;51.502;10.800;2023-05-07T11:36:51;7.10;;;5.40;;
20138;SDS011;10230;51.502;10.800;2023-05-07T11:39:30;6.50;;;5.85;;
20138;SDS011;10230;51.502;10.800;2023-05-07T11:41:58;5.35;;;4.78;;
20138;SDS011;10230;51.502;10.800;2023-05-07T11:44:25;5.63;;;4.85;;
20138;SDS011;10230;51.502;10.800;2023-05-07T11:47:03;5.93;;;5.00;;
20138;SDS011;10230;51.502;10.800;2023-05-07T11:49:29;6.63;;;5.85;;
20138;SDS011;10230;51.502;10.800;2023-05-07T11:51:55;6.20;;;5.07;;
20138;SDS011;10230;51.502;10.800;2023-05-07T11:54:21;5.53;;;4.95;;
20138;SDS011;10230;51.502;10.800;2023-05-07T11:56:47;4.55;;;4.15;;
20138;SDS011;10230;51.502;10.800;2023-05-07T11:59:17;5.15;;;4.65;;
20138;SDS011;10230;51.502;10.800;2023-05-07T12:01:45;5.32;;;4.68;;
20138;SDS011;10230;51.502;10.800;2023-05-07T12:04:11;4.57;;;4.13;;
20138;SDS011;10230;51.502;10.800;2023-05-07T12:06:36;5.30;;;4.80;;
20138;SDS011;10230;51.502;10.800;2023-05-07T12:09:03;5.25;;;4.75;;
20138;SDS011;10230;51.502;10.800;2023-05-07T12:11:29;6.90;;;4.50;;
20138;SDS011;10230;51.502;10.800;2023-05-07T12:13:55;5.38;;;4.85;;
20138;SDS011;10230;51.502;10.800;2023-05-07T12:16:21;5.60;;;5.05;;
20138;SDS011;10230;51.502;10.800;2023-05-07T12:18:47;4.68;;;4.22;;
20138;SDS011;10230;51.502;10.800;2023-05-07T12:21:13;5.07;;;4.57;;
20138;SDS011;10230;51.502;10.800;2023-05-07T12:23:39;4.68;;;4.28;;
20138;SDS011;10230;51.502;10.800;2023-05-07T12:26:05;5.18;;;4.68;;
20138;SDS011;10230;51.502;10.800;2023-05-07T12:28:31;4.57;;;3.83;;
20138;SDS011;10230;51.502;10.800;2023-05-07T12:31:02;4.22;;;3.83;;
20138;SDS011;10230;51.502;10.800;2023-05-07T12:33:28;4.18;;;3.80;;
20138;SDS011;10230;51.502;10.800;2023-05-07T12:35:56;4.40;;;3.97;;
20138;SDS011;10230;51.502;10.800;2023-05-07T12:38:21;3.60;;;3.30;;
20138;SDS011;10230;51.502;10.800;2023-05-07T12:40:48;4.30;;;3.90;;
20138;SDS011;10230;51.502;10.800;2023-05-07T12:43:18;4.07;;;3.50;;
20138;SDS011;10230;51.502;10.800;2023-05-07T12:45:44;4.38;;;3.97;;
20138;SDS011;10230;51.502;10.800;2023-05-07T12:48:11;3.65;;;3.35;;
20138;SDS011;10230;51.502;10.800;2023-05-07T12:50:37;4.30;;;3.70;;
20138;SDS011;10230;51.502;10.800;2023-05-07T12:53:04;3.53;;;3.20;;
20138;SDS011;10230;51.502;10.800;2023-05-07T12:55:31;4.18;;;3.60;;
20138;SDS011;10230;51.502;10.800;2023-05-07T12:57:57;4.47;;;3.63;;
20138;SDS011;10230;51.502;10.800;2023-05-07T13:00:36;3.78;;;3.25;;
20138;SDS011;10230;51.502;10.800;2023-05-07T13:03:03;3.47;;;3.15;;
20138;SDS011;10230;51.502;10.800;2023-05-07T13:05:29;3.60;;;3.22;;
20138;SDS011;10230;51.502;10.800;2023-05-07T13:07:55;4.18;;;3.20;;
20138;SDS011;10230;51.502;10.800;2023-05-07T13:10:24;4.30;;;3.28;;
20138;SDS011;10230;51.502;10.800;2023-05-07T13:12:51;3.58;;;3.28;;
20138;SDS011;10230;51.502;10.800;2023-05-07T13:15:16;5.47;;;3.65;;
20138;SDS011;10230;51.502;10.800;2023-05-07T13:17:42;3.78;;;3.40;;
20138;SDS011;10230;51.502;10.800;2023-05-07T13:20:11;4.30;;;3.90;;
20138;SDS011;10230;51.502;10.800;2023-05-07T13:22:40;4.10;;;3.75;;
20138;SDS011;10230;51.502;10.800;2023-05-07T13:25:06;4.20;;;3.70;;
20138;SDS011;10230;51.502;10.800;2023-05-07T13:27:32;4.35;;;3.95;;
20138;SDS011;10230;51.502;10.800;2023-05-07T13:30:01;4.50;;;3.95;;
20138;SDS011;10230;51.502;10.800;2023-05-07T13:32:28;4.93;;;4.43;;
20138;SDS011;10230;51.502;10.800;2023-05-07T13:34:55;5.60;;;4.95;;
20138;SDS011;10230;51.502;10.800;2023-05-07T13:37:21;5.47;;;4.70;;
20138;SDS011;10230;51.502;10.800;2023-05-07T13:39:46;6.93;;;4.78;;
20138;SDS011;10230;51.502;10.800;2023-05-07T13:42:12;5.10;;;4.55;;
20138;SDS011;10230;51.502;10.800;2023-05-07T13:44:38;4.60;;;4.20;;
20138;SDS011;10230;51.502;10.800;2023-05-07T13:47:03;4.75;;;4.13;;
20138;SDS011;10230;51.502;10.800;2023-05-07T13:49:29;4.40;;;4.00;;
20138;SDS011;10230;51.502;10.800;2023-05-07T13:51:55;5.85;;;5.32;;
20138;SDS011;10230;51.502;10.800;2023-05-07T13:54:20;5.32;;;4.82;;
20138;SDS011;10230;51.502;10.800;2023-05-07T13:56:46;8.40;;;4.80;;
20138;SDS011;10230;51.502;10.800;2023-05-07T13:59:12;5.88;;;5.07;;
20138;SDS011;10230;51.502;10.800;2023-05-07T14:01:39;5.28;;;4.78;;
20138;SDS011;10230;51.502;10.800;2023-05-07T14:04:05;5.60;;;5.07;;
20138;SDS011;10230;51.502;10.800;2023-05-07T14:06:31;5.45;;;4.40;;
20138;SDS011;10230;51.502;10.800;2023-05-07T14:08:56;5.43;;;4.93;;
20138;SDS011;10230;51.502;10.800;2023-05-07T14:11:23;5.45;;;4.82;;
20138;SDS011;10230;51.502;10.800;2023-05-07T14:13:48;5.75;;;4.90;;
20138;SDS011;10230;51.502;10.800;2023-05-07T14:16:14;4.82;;;4.43;;
20138;SDS011;10230;51.502;10.800;2023-05-07T14:18:40;6.55;;;4.32;;
20138;SDS011;10230;51.502;10.800;2023-05-07T14:21:05;4.90;;;4.40;;
20138;SDS011;10230;51.502;10.800;2023-05-07T14:23:32;4.63;;;4.13;;
20138;SDS011;10230;51.502;10.800;2023-05-07T14:25:57;5.15;;;4.65;;
20138;SDS011;10230;51.502;10.800;2023-05-07T14:28:23;4.70;;;4.15;;
20138;SDS011;10230;51.502;10.800;2023-05-07T14:30:49;4.50;;;4.10;;
20138;SDS011;10230;51.502;10.800;2023-05-07T14:33:14;4.18;;;3.78;;
20138;SDS011;10230;51.502;10.800;2023-05-07T14:35:40;3.95;;;3.55;;
20138;SDS011;10230;51.502;10.800;2023-05-07T14:38:06;5.22;;;4.38;;
20138;SDS011;10230;51.502;10.800;2023-05-07T14:40:31;4.15;;;3.25;;
20138;SDS011;10230;51.502;10.800;2023-05-07T14:42:57;4.35;;;3.50;;
20138;SDS011;10230;51.502;10.800;2023-05-07T14:45:23;5.05;;;3.15;;
20138;SDS011;10230;51.502;10.800;2023-05-07T14:47:48;3.58;;;3.28;;
20138;SDS011;10230;51.502;10.800;2023-05-07T14:50:14;3.97;;;3.63;;